Terminal Aerodrome Forecast
Issued by NWS

Home | Current Version | Previous Version | Text Only | Print | Product List | Glossary On
Versions: 1 2 3 4 5 6 7 8 9 10 11 12 13 14 15 16 17 18 19
000
FTUS42 KFFC 271127
TAFPDK
TAF
KPDK 271127Z 2712/2812 27008G17KT P6SM BKN035
     FM271800 31013G23KT P6SM SCT040
     FM280000 32007KT P6SM FEW050=

USA.gov is the U.S. government's official web portal to all federal, state and local government web resources and services.